createdAt,value
2023-02-16T00:00:23.097Z,-1.70
2023-02-16T00:02:52.085Z,-4.40
2023-02-16T00:05:27.133Z,-1.80
2023-02-16T00:07:57.741Z,-2.20
2023-02-16T00:10:28.086Z,-2.80
2023-02-16T00:13:14.319Z,-2.90
2023-02-16T00:15:45.136Z,-2.90
2023-02-16T00:18:19.324Z,-2.80
2023-02-16T00:20:50.560Z,-2.40
2023-02-16T00:23:19.921Z,-2.50
2023-02-16T00:25:49.856Z,-2.90
2023-02-16T00:28:22.348Z,-3.10
2023-02-16T00:30:55.064Z,-2.60
2023-02-16T00:33:24.609Z,-3.00
2023-02-16T00:35:53.928Z,-2.40
2023-02-16T00:38:23.569Z,-3.20
2023-02-16T00:40:53.478Z,-2.80
2023-02-16T00:43:28.859Z,-3.20
2023-02-16T00:45:59.806Z,-2.70
2023-02-16T00:48:29.228Z,-3.20
2023-02-16T00:50:59.012Z,-3.20
2023-02-16T00:53:29.845Z,-2.60
2023-02-16T00:55:59.265Z,-3.30
2023-02-16T00:58:32.548Z,-2.30
2023-02-16T01:01:09.807Z,-3.30
2023-02-16T01:03:39.714Z,-3.40
2023-02-16T01:06:26.576Z,-3.30
2023-02-16T01:09:19.782Z,-3.50
2023-02-16T01:11:49.442Z,-2.90
2023-02-16T01:14:19.303Z,-2.80
2023-02-16T01:16:51.466Z,-2.80
2023-02-16T01:19:21.241Z,-2.60
2023-02-16T01:21:51.146Z,-1.90
2023-02-16T01:24:22.937Z,-1.80
2023-02-16T01:26:53.414Z,-3.40
2023-02-16T01:29:24.561Z,-3.40
2023-02-16T01:31:55.385Z,-3.50
2023-02-16T01:34:25.903Z,-3.50
2023-02-16T01:36:55.350Z,-3.40
2023-02-16T01:39:24.551Z,-2.90
2023-02-16T01:42:02.519Z,-3.40
2023-02-16T01:44:38.634Z,-2.50
2023-02-16T01:47:21.106Z,-3.30
2023-02-16T01:49:50.769Z,-3.30
2023-02-16T01:52:27.798Z,-3.30
2023-02-16T01:55:02.788Z,-3.40
2023-02-16T01:57:43.436Z,-1.70
2023-02-16T02:00:23.320Z,-1.80
2023-02-16T02:03:16.921Z,-3.60
2023-02-16T02:05:44.982Z,-2.20
2023-02-16T02:08:32.459Z,-2.90
2023-02-16T02:11:11.633Z,-3.10
2023-02-16T02:13:46.700Z,-3.70
2023-02-16T02:16:19.648Z,-3.60
2023-02-16T02:18:53.937Z,-2.80
2023-02-16T02:22:04.091Z,-3.60
2023-02-16T02:25:13.673Z,-3.60
2023-02-16T02:27:52.562Z,-3.50
2023-02-16T02:30:34.261Z,-3.40
2023-02-16T02:33:18.020Z,-1.90
2023-02-16T02:35:53.557Z,-2.90
2023-02-16T02:38:31.602Z,-3.10
2023-02-16T02:41:12.725Z,-3.40
2023-02-16T02:43:48.337Z,-3.30
2023-02-16T02:46:25.085Z,-2.70
2023-02-16T02:48:55.509Z,-3.00
2023-02-16T02:51:31.151Z,-3.50
2023-02-16T02:54:36.943Z,-3.50
2023-02-16T02:57:33.726Z,-3.50
2023-02-16T03:00:26.930Z,-2.40
2023-02-16T03:03:00.371Z,-3.60
2023-02-16T03:05:33.362Z,-3.60
2023-02-16T03:08:14.865Z,-3.00
2023-02-16T03:11:06.997Z,-2.70
2023-02-16T03:13:41.807Z,-3.70
2023-02-16T03:16:16.864Z,-3.70
2023-02-16T03:19:05.640Z,-3.70
2023-02-16T03:21:53.635Z,-3.10
2023-02-16T03:24:43.549Z,-3.20
2023-02-16T03:27:32.432Z,-3.20
2023-02-16T03:30:03.295Z,-3.20
2023-02-16T03:32:36.827Z,-2.60
2023-02-16T03:35:06.853Z,-3.00
2023-02-16T03:37:37.020Z,-3.80
2023-02-16T03:40:26.935Z,-2.50
2023-02-16T03:42:59.137Z,-3.70
2023-02-16T03:45:29.753Z,-2.30
2023-02-16T03:48:00.733Z,-3.70
2023-02-16T03:50:31.062Z,-3.70
2023-02-16T03:53:08.416Z,-3.20
2023-02-16T03:55:40.591Z,-3.50
2023-02-16T03:58:12.691Z,-3.90
2023-02-16T04:00:42.906Z,-3.80
2023-02-16T04:03:16.359Z,-3.80
2023-02-16T04:05:46.709Z,-3.70
2023-02-16T04:08:16.307Z,-3.80
2023-02-16T04:10:46.144Z,-3.70
2023-02-16T04:13:14.396Z,-2.70
2023-02-16T04:15:43.815Z,-2.80
2023-02-16T04:18:18.851Z,-3.40
2023-02-16T04:20:48.149Z,-3.20
2023-02-16T04:23:17.796Z,-3.80
2023-02-16T04:25:47.507Z,-2.70
2023-02-16T04:28:18.006Z,-3.90
2023-02-16T04:30:48.002Z,-3.70
2023-02-16T04:33:20.151Z,-3.80
2023-02-16T04:35:53.652Z,-3.90
2023-02-16T04:38:24.412Z,-3.90
2023-02-16T04:40:54.713Z,-3.90
2023-02-16T04:43:24.239Z,-3.90
2023-02-16T04:45:53.954Z,-3.90
2023-02-16T04:48:25.157Z,-3.20
2023-02-16T04:50:55.061Z,-2.60
2023-02-16T04:53:24.548Z,-3.50
2023-02-16T04:55:54.173Z,-3.30
2023-02-16T04:58:23.952Z,-4.10
2023-02-16T05:00:58.061Z,-4.00
2023-02-16T05:03:30.017Z,-4.00
2023-02-16T05:06:00.290Z,-3.90
2023-02-16T05:08:31.064Z,-4.00
2023-02-16T05:11:17.982Z,-4.00
2023-02-16T05:14:04.602Z,-2.50
2023-02-16T05:16:34.220Z,-3.90
2023-02-16T05:19:05.334Z,-4.10
2023-02-16T05:21:35.670Z,-4.00
2023-02-16T05:24:07.048Z,-4.00
2023-02-16T05:26:39.881Z,-3.90
2023-02-16T05:29:08.993Z,-3.10
2023-02-16T05:31:38.747Z,-3.80
2023-02-16T05:34:12.267Z,-3.80
2023-02-16T05:36:46.543Z,-3.30
2023-02-16T05:39:16.008Z,-2.70
2023-02-16T05:41:45.451Z,-3.70
2023-02-16T05:44:15.159Z,-3.70
2023-02-16T05:46:46.873Z,-3.80
2023-02-16T05:49:19.271Z,-3.50
2023-02-16T05:51:49.124Z,-3.20
2023-02-16T05:54:19.290Z,-3.30
2023-02-16T05:56:52.423Z,-2.40
2023-02-16T05:59:22.764Z,-4.00
2023-02-16T06:01:53.160Z,-3.80
2023-02-16T06:04:26.404Z,-3.80
2023-02-16T06:06:56.505Z,-2.10
2023-02-16T06:09:28.043Z,-3.40
2023-02-16T06:11:57.707Z,-1.90
2023-02-16T06:14:27.274Z,-3.80
2023-02-16T06:16:59.351Z,-3.90
2023-02-16T06:19:31.809Z,-2.20
2023-02-16T06:22:02.067Z,-3.80
2023-02-16T06:24:31.473Z,-2.50
2023-02-16T06:27:00.967Z,-2.20
2023-02-16T06:29:30.523Z,-3.20
2023-02-16T06:32:00.330Z,-3.60
2023-02-16T06:34:33.528Z,-2.40
2023-02-16T06:37:07.111Z,-3.50
2023-02-16T06:39:37.493Z,-2.40
2023-02-16T06:42:09.214Z,-2.90
2023-02-16T06:44:45.350Z,-3.30
2023-02-16T06:47:16.701Z,-3.10
2023-02-16T06:49:48.366Z,-3.10
2023-02-16T06:52:18.873Z,-1.20
2023-02-16T06:54:48.630Z,-2.00
2023-02-16T06:57:27.451Z,-2.90
2023-02-16T06:59:57.657Z,-2.70
2023-02-16T07:02:28.026Z,-2.50
2023-02-16T07:04:59.085Z,-2.50
2023-02-16T07:07:29.109Z,-0.70
2023-02-16T07:09:59.150Z,-2.30
2023-02-16T07:12:29.067Z,-2.00
2023-02-16T07:14:58.953Z,-3.40
2023-02-16T07:17:28.999Z,-1.90
2023-02-16T07:20:01.065Z,-1.80
2023-02-16T07:22:30.901Z,-1.50
2023-02-16T07:25:01.365Z,-1.60
2023-02-16T07:27:30.681Z,-1.40
2023-02-16T07:30:00.359Z,-1.40
2023-02-16T07:32:34.844Z,-1.30
2023-02-16T07:35:06.085Z,-1.30
2023-02-16T07:37:36.206Z,-2.20
2023-02-16T07:40:06.164Z,-1.00
2023-02-16T07:42:36.522Z,-0.80
2023-02-16T07:45:08.051Z,-0.70
2023-02-16T07:47:38.173Z,-0.60
2023-02-16T07:50:11.724Z,0.00
2023-02-16T07:52:43.009Z,-0.30
2023-02-16T07:55:13.867Z,-0.20
2023-02-16T07:57:46.429Z,0.00
2023-02-16T08:00:17.762Z,0.20
2023-02-16T08:02:49.229Z,0.40
2023-02-16T08:05:21.938Z,0.70
2023-02-16T08:07:51.822Z,0.80
2023-02-16T08:10:30.874Z,1.00
2023-02-16T08:13:01.376Z,0.60
2023-02-16T08:15:32.185Z,1.30
2023-02-16T08:18:10.717Z,1.60
2023-02-16T08:21:02.337Z,1.80
2023-02-16T08:23:32.778Z,1.10
2023-02-16T08:26:11.384Z,2.20
2023-02-16T08:28:49.810Z,2.20
2023-02-16T08:31:24.105Z,2.30
2023-02-16T08:33:55.813Z,2.70
2023-02-16T08:36:34.557Z,3.20
2023-02-16T08:39:07.011Z,3.50
2023-02-16T08:41:39.133Z,3.70
2023-02-16T08:44:10.118Z,4.10
2023-02-16T08:46:41.532Z,4.20
2023-02-16T08:49:12.612Z,4.50
2023-02-16T08:51:46.570Z,4.70
2023-02-16T08:54:19.112Z,5.40
2023-02-16T08:56:50.106Z,5.90
2023-02-16T08:59:22.874Z,6.60
2023-02-16T09:01:52.661Z,7.00
2023-02-16T09:04:23.732Z,7.90
2023-02-16T09:06:54.805Z,8.40
2023-02-16T09:09:27.156Z,8.60
2023-02-16T09:11:58.131Z,9.40
2023-02-16T09:14:28.483Z,9.90
2023-02-16T09:16:58.720Z,10.00
2023-02-16T09:19:29.014Z,10.60
2023-02-16T09:22:00.173Z,11.10
2023-02-16T09:24:30.788Z,11.60
2023-02-16T09:27:00.458Z,12.90
2023-02-16T09:29:29.819Z,13.10
2023-02-16T09:31:59.494Z,13.40
2023-02-16T09:34:30.714Z,13.00
2023-02-16T09:37:02.199Z,13.30
2023-02-16T09:39:31.949Z,14.40
2023-02-16T09:42:24.934Z,14.70
2023-02-16T09:45:00.886Z,15.20
2023-02-16T09:47:35.272Z,16.20
2023-02-16T09:50:09.623Z,15.30
2023-02-16T09:52:43.080Z,15.90
2023-02-16T09:55:15.674Z,15.80
2023-02-16T09:57:57.977Z,14.90
2023-02-16T10:00:38.206Z,14.50
2023-02-16T10:03:19.311Z,15.70
2023-02-16T10:05:54.418Z,15.00
2023-02-16T10:08:31.805Z,15.60
2023-02-16T10:11:07.996Z,16.20
2023-02-16T10:13:44.404Z,16.70
2023-02-16T10:16:18.828Z,16.60
2023-02-16T10:18:54.004Z,15.70
2023-02-16T10:21:30.306Z,16.10
2023-02-16T10:24:05.777Z,17.20
2023-02-16T10:26:39.981Z,17.50
2023-02-16T10:29:16.103Z,18.60
2023-02-16T10:31:51.580Z,18.70
2023-02-16T10:34:23.754Z,18.20
2023-02-16T10:37:10.843Z,18.00
2023-02-16T10:39:50.742Z,17.60
2023-02-16T10:42:32.505Z,18.00
2023-02-16T10:45:08.576Z,17.10
2023-02-16T10:47:41.351Z,17.70
2023-02-16T10:50:28.007Z,17.60
2023-02-16T10:53:04.236Z,16.80
2023-02-16T10:55:36.759Z,16.20
2023-02-16T10:58:06.571Z,15.90
2023-02-16T11:00:55.129Z,15.40
2023-02-16T11:03:30.314Z,14.40
2023-02-16T11:06:16.053Z,14.60
2023-02-16T11:08:56.282Z,15.20
2023-02-16T11:11:30.950Z,15.80
2023-02-16T11:14:08.632Z,17.40
2023-02-16T11:16:39.411Z,19.40
2023-02-16T11:19:32.302Z,19.00
2023-02-16T11:22:02.935Z,16.80
2023-02-16T11:24:34.304Z,16.30
2023-02-16T11:27:08.721Z,15.60
2023-02-16T11:29:38.973Z,14.70
2023-02-16T11:32:13.899Z,14.50
2023-02-16T11:34:45.593Z,15.60
2023-02-16T11:37:29.232Z,16.50
2023-02-16T11:40:04.142Z,16.90
2023-02-16T11:42:44.126Z,17.80
2023-02-16T11:45:38.119Z,16.40
2023-02-16T11:48:33.401Z,16.70
2023-02-16T11:51:05.957Z,16.90
2023-02-16T11:53:47.354Z,16.10
2023-02-16T11:56:49.980Z,15.50
2023-02-16T11:59:26.731Z,16.00
2023-02-16T12:02:32.170Z,16.50
2023-02-16T12:05:23.454Z,15.70
2023-02-16T12:08:20.571Z,15.80
2023-02-16T12:11:16.291Z,15.50
2023-02-16T12:13:54.715Z,15.50
2023-02-16T12:19:38.478Z,13.80
2023-02-16T12:22:21.339Z,14.10
2023-02-16T12:25:24.303Z,13.80
2023-02-16T12:28:05.601Z,12.90
2023-02-16T12:31:03.377Z,15.30
2023-02-16T12:33:54.032Z,16.10
2023-02-16T12:36:48.787Z,15.60
2023-02-16T12:39:56.878Z,14.80
2023-02-16T12:42:50.607Z,14.10
2023-02-16T12:45:27.539Z,13.70
2023-02-16T12:52:29.547Z,13.60
2023-02-16T12:55:19.471Z,13.70
2023-02-16T12:58:06.643Z,13.10
2023-02-16T13:05:51.160Z,12.70
2023-02-16T13:08:50.554Z,10.70
2023-02-16T13:11:41.033Z,11.70
2023-02-16T13:14:21.842Z,12.00
2023-02-16T13:16:57.026Z,12.30
2023-02-16T13:19:34.596Z,12.30
2023-02-16T13:22:38.729Z,12.30
2023-02-16T13:25:53.489Z,12.60
2023-02-16T13:28:44.664Z,13.00
2023-02-16T13:31:30.100Z,14.10
2023-02-16T13:34:40.604Z,13.80
2023-02-16T13:37:37.885Z,13.90
2023-02-16T13:40:34.227Z,13.80
2023-02-16T13:43:16.313Z,14.20
2023-02-16T13:46:08.090Z,14.40
2023-02-16T13:48:43.008Z,14.30
2023-02-16T13:51:19.859Z,14.30
2023-02-16T13:53:58.157Z,14.70
2023-02-16T13:56:38.093Z,15.00
2023-02-16T13:59:58.829Z,16.00
2023-02-16T14:02:55.198Z,16.90
2023-02-16T14:05:37.696Z,14.60
2023-02-16T14:08:29.115Z,15.60
2023-02-16T14:11:02.556Z,16.00
2023-02-16T14:14:01.418Z,16.80
2023-02-16T14:16:35.805Z,16.40
2023-02-16T14:19:20.720Z,15.40
2023-02-16T14:21:52.081Z,15.00
2023-02-16T14:24:33.252Z,15.80
2023-02-16T14:27:05.379Z,16.30
2023-02-16T14:29:40.385Z,16.80
2023-02-16T14:32:26.743Z,15.90
2023-02-16T14:35:08.677Z,15.60
2023-02-16T14:37:41.543Z,15.40
2023-02-16T14:40:22.206Z,15.20
2023-02-16T14:42:56.874Z,15.10
2023-02-16T14:46:00.414Z,15.30
2023-02-16T14:48:53.499Z,15.10
2023-02-16T14:51:43.344Z,14.80
2023-02-16T14:54:40.162Z,14.40
2023-02-16T14:57:18.366Z,15.10
2023-02-16T15:00:15.835Z,14.90
2023-02-16T15:03:02.444Z,14.20
2023-02-16T15:05:38.256Z,13.90
2023-02-16T15:08:23.755Z,13.50
2023-02-16T15:10:55.980Z,13.90
2023-02-16T15:13:29.210Z,13.70
2023-02-16T15:16:04.399Z,13.10
2023-02-16T15:18:39.088Z,13.10
2023-02-16T15:21:26.895Z,12.70
2023-02-16T15:23:58.501Z,12.20
2023-02-16T15:26:30.761Z,11.80
2023-02-16T15:29:06.176Z,11.30
2023-02-16T15:31:44.337Z,10.10
2023-02-16T15:34:45.435Z,10.20
2023-02-16T15:37:33.486Z,9.70
2023-02-16T15:40:30.931Z,9.20
2023-02-16T15:43:08.341Z,8.60
2023-02-16T15:45:40.523Z,8.10
2023-02-16T15:48:21.019Z,8.00
2023-02-16T15:50:54.844Z,7.90
2023-02-16T15:53:39.558Z,7.50
2023-02-16T15:56:36.771Z,7.40
2023-02-16T15:59:19.710Z,7.20
2023-02-16T16:01:50.555Z,7.00
2023-02-16T16:04:24.477Z,6.90
2023-02-16T16:06:55.366Z,6.70
2023-02-16T16:09:31.372Z,6.60
2023-02-16T16:12:06.298Z,6.60
2023-02-16T16:14:39.584Z,6.40
2023-02-16T16:17:23.100Z,6.40
2023-02-16T16:19:54.223Z,6.30
2023-02-16T16:22:37.535Z,6.10
2023-02-16T16:25:47.002Z,5.90
2023-02-16T16:28:36.657Z,5.50
2023-02-16T16:31:12.934Z,5.90
2023-02-16T16:33:59.866Z,5.70
2023-02-16T16:36:32.468Z,5.70
2023-02-16T16:39:26.283Z,5.70
2023-02-16T16:42:20.814Z,5.70
2023-02-16T16:45:36.360Z,5.80
2023-02-16T16:48:16.228Z,4.40
2023-02-16T16:50:45.827Z,4.50
2023-02-16T16:53:57.765Z,5.60
2023-02-16T16:56:28.135Z,5.30
2023-02-16T16:59:19.567Z,5.60
2023-02-16T17:01:53.882Z,5.10
2023-02-16T17:04:48.957Z,5.50
2023-02-16T17:07:19.642Z,5.50
2023-02-16T17:09:56.160Z,5.40
2023-02-16T17:12:33.606Z,5.60
2023-02-16T17:15:31.084Z,5.60
2023-02-16T17:18:03.300Z,5.40
2023-02-16T17:20:53.914Z,5.20
2023-02-16T17:23:39.134Z,4.70
2023-02-16T17:26:12.408Z,5.00
2023-02-16T17:28:44.568Z,4.90
2023-02-16T17:31:20.522Z,3.80
2023-02-16T17:33:58.205Z,4.70
2023-02-16T17:36:32.559Z,4.60
2023-02-16T17:39:04.290Z,4.60
2023-02-16T17:41:42.400Z,5.00
2023-02-16T17:44:13.154Z,4.40
2023-02-16T17:46:55.109Z,4.40
2023-02-16T17:50:17.122Z,3.00
2023-02-16T17:52:50.751Z,3.70
2023-02-16T17:55:20.938Z,4.10
2023-02-16T17:57:50.719Z,4.00
2023-02-16T18:00:23.131Z,3.60
2023-02-16T18:06:03.693Z,3.90
2023-02-16T18:08:42.777Z,4.00
2023-02-16T18:11:15.010Z,3.90
2023-02-16T18:13:47.810Z,3.90
2023-02-16T18:16:27.349Z,3.70
2023-02-16T18:18:57.837Z,3.70
2023-02-16T18:21:27.408Z,3.70
2023-02-16T18:24:00.991Z,3.70
2023-02-16T18:26:35.981Z,3.70
2023-02-16T18:29:06.768Z,3.60
2023-02-16T18:31:37.923Z,3.50
2023-02-16T18:34:10.375Z,3.40
2023-02-16T18:36:42.914Z,1.90
2023-02-16T18:39:13.843Z,4.50
2023-02-16T18:41:43.920Z,3.30
2023-02-16T18:44:14.040Z,3.40
2023-02-16T18:46:43.464Z,3.30
2023-02-16T18:49:12.920Z,3.30
2023-02-16T18:51:43.077Z,3.20
2023-02-16T18:54:13.976Z,3.10
2023-02-16T18:56:44.666Z,3.00
2023-02-16T18:59:14.162Z,3.00
2023-02-16T19:01:43.583Z,3.00
2023-02-16T19:04:12.942Z,3.00
2023-02-16T19:06:42.876Z,3.00
2023-02-16T19:09:14.925Z,3.00
2023-02-16T19:11:44.575Z,3.00
2023-02-16T19:14:14.766Z,2.80
2023-02-16T19:16:44.849Z,2.80
2023-02-16T19:19:14.874Z,2.80
2023-02-16T19:21:44.893Z,2.80
2023-02-16T19:24:15.740Z,2.80
2023-02-16T19:26:45.491Z,2.80
2023-02-16T19:29:14.983Z,2.80
2023-02-16T19:31:44.545Z,2.70
2023-02-16T19:34:14.258Z,2.70
2023-02-16T19:36:43.798Z,2.70
2023-02-16T19:39:13.880Z,2.80
2023-02-16T19:41:48.703Z,2.80
2023-02-16T19:44:18.371Z,2.90
2023-02-16T19:46:48.474Z,2.80
2023-02-16T19:49:21.578Z,2.80
2023-02-16T19:51:51.324Z,2.70
2023-02-16T19:54:20.855Z,2.70
2023-02-16T19:56:54.293Z,2.60
2023-02-16T19:59:23.698Z,2.50
2023-02-16T20:01:55.335Z,2.30
2023-02-16T20:04:25.505Z,2.40
2023-02-16T20:06:56.783Z,2.50
2023-02-16T20:09:30.213Z,2.30
2023-02-16T20:12:14.510Z,2.10
2023-02-16T20:14:44.074Z,2.10
2023-02-16T20:17:25.728Z,1.90
2023-02-16T20:19:56.882Z,1.90
2023-02-16T20:22:26.185Z,1.80
2023-02-16T20:24:56.727Z,1.70
2023-02-16T20:27:41.356Z,1.60
2023-02-16T20:30:20.025Z,1.60
2023-02-16T20:32:52.861Z,1.40
2023-02-16T20:35:22.636Z,1.20
2023-02-16T20:37:55.657Z,1.20
2023-02-16T20:40:26.455Z,1.50
2023-02-16T20:42:57.849Z,1.30
2023-02-16T20:45:27.325Z,1.30
2023-02-16T20:47:56.680Z,1.30
2023-02-16T20:50:28.779Z,1.30
2023-02-16T20:52:58.287Z,1.40
2023-02-16T20:55:27.284Z,1.30
2023-02-16T20:57:58.580Z,1.40
2023-02-16T21:00:30.524Z,1.40
2023-02-16T21:03:00.757Z,1.60
2023-02-16T21:05:30.094Z,1.60
2023-02-16T21:07:59.890Z,1.70
2023-02-16T21:10:29.815Z,1.70
2023-02-16T21:13:01.748Z,1.60
2023-02-16T21:15:31.980Z,1.60
2023-02-16T21:18:01.317Z,1.50
2023-02-16T21:20:30.647Z,1.40
2023-02-16T21:23:04.341Z,1.40
2023-02-16T21:25:34.099Z,1.40
2023-02-16T21:28:05.021Z,1.40
2023-02-16T21:30:34.353Z,1.40
2023-02-16T21:33:03.636Z,1.40
2023-02-16T21:35:34.551Z,1.40
2023-02-16T21:38:05.137Z,1.40
2023-02-16T21:40:51.755Z,1.40
2023-02-16T21:43:22.648Z,1.50
2023-02-16T21:46:01.681Z,1.40
2023-02-16T21:48:50.546Z,1.50
2023-02-16T21:51:22.244Z,1.50
2023-02-16T21:53:53.799Z,1.40
2023-02-16T21:56:31.060Z,1.30
2023-02-16T21:59:02.403Z,1.20
2023-02-16T22:01:34.348Z,1.10
2023-02-16T22:04:04.122Z,1.00
2023-02-16T22:06:35.230Z,0.90
2023-02-16T22:09:10.303Z,0.90
2023-02-16T22:11:40.836Z,0.90
2023-02-16T22:14:12.736Z,0.90
2023-02-16T22:16:42.446Z,0.80
2023-02-16T22:19:15.500Z,0.70
2023-02-16T22:21:48.340Z,0.70
2023-02-16T22:24:20.437Z,0.70
2023-02-16T22:26:51.749Z,0.60
2023-02-16T22:29:22.291Z,0.50
2023-02-16T22:31:51.891Z,0.50
2023-02-16T22:34:23.275Z,0.40
2023-02-16T22:36:52.884Z,0.40
2023-02-16T22:39:22.314Z,0.40
2023-02-16T22:41:52.823Z,0.40
2023-02-16T22:44:23.541Z,0.50
2023-02-16T22:46:52.637Z,0.40
2023-02-16T22:49:22.186Z,0.80
2023-02-16T22:51:52.527Z,0.20
2023-02-16T22:54:22.696Z,0.20
2023-02-16T22:56:52.068Z,0.20
2023-02-16T22:59:23.385Z,0.20
2023-02-16T23:01:52.938Z,0.20
2023-02-16T23:04:22.125Z,0.20
2023-02-16T23:06:51.366Z,0.20
2023-02-16T23:09:23.662Z,0.30
2023-02-16T23:11:53.136Z,0.20
2023-02-16T23:14:23.957Z,0.10
2023-02-16T23:16:55.163Z,0.80
2023-02-16T23:19:26.897Z,0.00
2023-02-16T23:21:56.534Z,0.00
2023-02-16T23:24:26.323Z,-0.10
2023-02-16T23:26:55.995Z,-0.20
2023-02-16T23:29:26.870Z,0.00
2023-02-16T23:31:56.304Z,0.10
2023-02-16T23:34:25.422Z,0.10
2023-02-16T23:36:54.920Z,0.20
2023-02-16T23:39:23.971Z,0.20
2023-02-16T23:41:53.821Z,0.30
2023-02-16T23:44:23.204Z,0.20
2023-02-16T23:46:54.236Z,0.10
2023-02-16T23:49:24.030Z,0.10
2023-02-16T23:51:52.835Z,0.00
2023-02-16T23:54:22.476Z,-0.10
2023-02-16T23:56:52.866Z,-0.20
2023-02-16T23:59:22.444Z,-0.20
